createdAt,value
2017-08-22T00:00:58.851Z,7.90
2017-08-22T00:03:31.664Z,7.93
2017-08-22T00:05:58.607Z,8.60
2017-08-22T00:08:25.548Z,8.20
2017-08-22T00:10:52.493Z,8.50
2017-08-22T00:13:19.370Z,8.17
2017-08-22T00:15:46.269Z,8.10
2017-08-22T00:18:13.209Z,7.87
2017-08-22T00:20:40.089Z,8.70
2017-08-22T00:23:06.968Z,7.93
2017-08-22T00:25:34.623Z,7.17
2017-08-22T00:28:01.577Z,7.47
2017-08-22T00:30:28.475Z,8.13
2017-08-22T00:32:55.360Z,7.57
2017-08-22T00:35:22.326Z,6.90
2017-08-22T00:37:49.216Z,7.13
2017-08-22T00:40:16.119Z,6.70
2017-08-22T00:42:43.892Z,7.30
2017-08-22T00:45:10.774Z,6.13
2017-08-22T00:47:37.740Z,8.07
2017-08-22T00:50:04.652Z,7.50
2017-08-22T00:52:31.569Z,7.93
2017-08-22T00:54:59.306Z,8.00
2017-08-22T00:57:26.205Z,8.17
2017-08-22T00:59:53.077Z,7.70
2017-08-22T01:02:20.009Z,7.80
2017-08-22T01:04:47.004Z,8.07
2017-08-22T01:07:14.632Z,7.50
2017-08-22T01:09:41.559Z,7.37
2017-08-22T01:12:08.449Z,8.40
2017-08-22T01:14:36.119Z,7.97
2017-08-22T01:17:03.104Z,8.30
2017-08-22T01:19:29.995Z,7.40
2017-08-22T01:21:57.025Z,7.87
2017-08-22T01:24:24.105Z,7.60
2017-08-22T01:26:51.838Z,8.30
2017-08-22T01:29:18.781Z,7.60
2017-08-22T01:31:45.812Z,8.13
2017-08-22T01:34:12.748Z,7.20
2017-08-22T01:36:39.692Z,7.37
2017-08-22T01:39:06.694Z,7.53
2017-08-22T01:41:33.643Z,6.67
2017-08-22T01:44:01.484Z,8.23
2017-08-22T01:46:28.386Z,8.47
2017-08-22T01:48:55.353Z,6.67
2017-08-22T01:51:22.243Z,7.83
2017-08-22T01:53:49.156Z,8.20
2017-08-22T01:56:16.088Z,7.93
2017-08-22T01:58:42.990Z,7.10
2017-08-22T02:01:09.936Z,8.70
2017-08-22T02:03:37.571Z,7.43
2017-08-22T02:06:04.431Z,7.37
2017-08-22T02:08:31.445Z,7.77
2017-08-22T02:10:58.336Z,7.03
2017-08-22T02:13:25.239Z,7.47
2017-08-22T02:15:52.192Z,7.77
2017-08-22T02:18:19.068Z,7.87
2017-08-22T02:20:46.739Z,7.30
2017-08-22T02:23:13.642Z,7.37
2017-08-22T02:25:40.617Z,7.97
2017-08-22T02:28:07.504Z,7.57
2017-08-22T02:30:34.405Z,8.90
2017-08-22T02:33:01.373Z,7.20
2017-08-22T02:35:28.253Z,7.10
2017-08-22T02:37:55.135Z,7.50
2017-08-22T02:40:22.104Z,8.60
2017-08-22T02:42:48.974Z,8.07
2017-08-22T02:45:15.893Z,8.30
2017-08-22T02:47:43.516Z,8.63
2017-08-22T02:50:10.490Z,7.93
2017-08-22T02:52:38.121Z,7.60
2017-08-22T02:55:04.996Z,7.60
2017-08-22T02:57:31.960Z,8.50
2017-08-22T02:59:59.659Z,8.83
2017-08-22T03:02:26.547Z,8.17
2017-08-22T03:04:54.285Z,8.97
2017-08-22T03:07:21.162Z,9.20
2017-08-22T03:09:48.059Z,9.60
2017-08-22T03:12:15.007Z,8.93
2017-08-22T03:14:41.949Z,9.80
2017-08-22T03:17:08.808Z,10.47
2017-08-22T03:19:35.732Z,9.77
2017-08-22T03:22:02.688Z,10.07
2017-08-22T03:24:29.560Z,9.70
2017-08-22T03:26:56.432Z,9.33
2017-08-22T03:29:24.139Z,8.97
2017-08-22T03:31:51.000Z,9.70
2017-08-22T03:34:17.923Z,10.37
2017-08-22T03:36:44.802Z,9.40
2017-08-22T03:39:11.745Z,9.97
2017-08-22T03:41:38.609Z,10.60
2017-08-22T03:44:05.486Z,11.10
2017-08-22T03:46:32.436Z,10.27
2017-08-22T03:48:59.313Z,9.23
2017-08-22T03:51:26.239Z,9.90
2017-08-22T03:53:53.169Z,11.80
2017-08-22T03:56:20.864Z,10.80
2017-08-22T03:58:47.720Z,11.10
2017-08-22T04:01:14.584Z,10.50
2017-08-22T04:03:41.561Z,10.27
2017-08-22T04:06:08.454Z,10.30
2017-08-22T04:08:35.345Z,11.17
2017-08-22T04:11:02.280Z,11.13
2017-08-22T04:13:29.134Z,10.20
2017-08-22T04:15:56.053Z,11.50
2017-08-22T04:18:23.004Z,11.17
2017-08-22T04:20:50.398Z,12.03
2017-08-22T04:23:17.405Z,11.37
2017-08-22T04:25:46.759Z,10.47
2017-08-22T04:28:13.666Z,10.77
2017-08-22T04:30:40.612Z,11.07
2017-08-22T04:33:07.486Z,11.40
2017-08-22T04:35:34.488Z,11.47
2017-08-22T04:38:13.449Z,12.13
2017-08-22T04:40:41.165Z,10.57
2017-08-22T04:43:08.095Z,10.83
2017-08-22T04:45:35.028Z,9.30
2017-08-22T04:48:01.987Z,10.00
2017-08-22T04:50:28.916Z,9.60
2017-08-22T04:52:55.896Z,10.30
2017-08-22T04:55:22.817Z,10.27
2017-08-22T04:57:50.181Z,9.50
2017-08-22T05:00:17.169Z,10.10
2017-08-22T05:02:44.052Z,8.93
2017-08-22T05:05:11.203Z,9.90
2017-08-22T05:07:38.108Z,9.70
2017-08-22T05:10:05.065Z,8.60
2017-08-22T05:12:31.979Z,8.50
2017-08-22T05:14:58.952Z,9.43
2017-08-22T05:17:25.893Z,9.93
2017-08-22T05:19:52.798Z,9.63
2017-08-22T05:22:19.787Z,8.50
2017-08-22T05:24:46.737Z,9.27
2017-08-22T05:27:13.697Z,9.60
2017-08-22T05:29:41.454Z,9.97
2017-08-22T05:32:09.188Z,10.70
2017-08-22T05:34:36.203Z,10.93
2017-08-22T05:37:03.068Z,10.20
2017-08-22T05:39:30.147Z,9.40
2017-08-22T05:41:57.112Z,9.67
2017-08-22T05:44:24.748Z,10.37
2017-08-22T05:46:51.767Z,10.60
2017-08-22T05:49:23.563Z,11.43
2017-08-22T05:51:50.586Z,9.50
2017-08-22T05:54:17.508Z,10.40
2017-08-22T05:56:44.510Z,9.97
2017-08-22T05:59:12.196Z,9.57
2017-08-22T06:01:40.382Z,8.70
2017-08-22T06:04:07.360Z,9.00
2017-08-22T06:06:34.331Z,9.20
2017-08-22T06:09:12.280Z,9.60
2017-08-22T06:11:40.206Z,9.00
2017-08-22T06:14:07.078Z,9.80
2017-08-22T06:16:35.361Z,10.50
2017-08-22T06:19:18.136Z,9.30
2017-08-22T06:21:46.593Z,8.27
2017-08-22T06:24:13.539Z,9.10
2017-08-22T06:26:40.489Z,7.40
2017-08-22T06:29:07.525Z,7.90
2017-08-22T06:31:34.384Z,8.80
2017-08-22T06:34:01.523Z,7.83
2017-08-22T06:36:28.500Z,8.13
2017-08-22T06:38:55.479Z,8.37
2017-08-22T06:41:23.104Z,9.53
2017-08-22T06:43:50.019Z,8.47
2017-08-22T06:46:17.039Z,8.53
2017-08-22T06:48:44.704Z,8.20
2017-08-22T06:51:11.670Z,7.30
2017-08-22T06:53:38.770Z,7.30
2017-08-22T06:56:05.714Z,8.30
2017-08-22T06:58:32.606Z,8.27
2017-08-22T07:01:00.310Z,7.30
2017-08-22T07:03:27.276Z,7.73
2017-08-22T07:05:54.157Z,6.93
2017-08-22T07:08:21.811Z,6.90
2017-08-22T07:10:48.792Z,8.47
2017-08-22T07:13:15.725Z,8.80
2017-08-22T07:15:42.722Z,7.50
2017-08-22T07:18:09.682Z,8.00
2017-08-22T07:20:36.605Z,7.47
2017-08-22T07:23:03.998Z,7.70
2017-08-22T07:25:31.380Z,7.37
2017-08-22T07:27:58.617Z,7.10
2017-08-22T07:30:26.637Z,7.00
2017-08-22T07:32:54.841Z,7.40
2017-08-22T07:35:22.286Z,7.10
2017-08-22T07:37:49.977Z,7.47
2017-08-22T07:40:17.322Z,7.00
2017-08-22T07:42:47.336Z,8.57
2017-08-22T07:45:15.216Z,7.80
2017-08-22T07:47:42.922Z,6.73
2017-08-22T07:50:11.263Z,6.30
2017-08-22T07:52:39.648Z,7.67
2017-08-22T07:55:07.260Z,6.10
2017-08-22T07:57:34.671Z,7.00
2017-08-22T08:00:02.855Z,6.77
2017-08-22T08:02:29.762Z,6.57
2017-08-22T08:04:57.111Z,5.23
2017-08-22T08:07:24.525Z,6.37
2017-08-22T08:09:52.027Z,4.90
2017-08-22T08:12:20.289Z,4.87
2017-08-22T08:14:47.796Z,5.63
2017-08-22T08:17:15.496Z,5.10
2017-08-22T08:19:42.408Z,5.50
2017-08-22T08:22:10.168Z,5.33
2017-08-22T08:24:38.120Z,5.30
2017-08-22T08:27:05.080Z,4.70
2017-08-22T08:29:32.064Z,5.23
2017-08-22T08:32:00.820Z,5.00
2017-08-22T08:34:31.446Z,5.13
2017-08-22T08:36:59.009Z,4.23
2017-08-22T08:39:29.925Z,4.63
2017-08-22T08:41:59.176Z,5.30
2017-08-22T08:44:28.015Z,4.60
2017-08-22T08:46:56.523Z,4.50
2017-08-22T08:49:24.224Z,4.07
2017-08-22T08:51:55.861Z,4.40
2017-08-22T08:54:22.962Z,4.90
2017-08-22T08:56:49.852Z,4.60
2017-08-22T08:59:16.724Z,4.17
2017-08-22T09:01:43.661Z,4.57
2017-08-22T09:04:10.536Z,4.60
2017-08-22T09:06:37.414Z,4.60
2017-08-22T09:09:04.492Z,4.10
2017-08-22T09:11:31.436Z,3.90
2017-08-22T09:13:58.382Z,3.73
2017-08-22T09:16:25.971Z,4.50
2017-08-22T09:18:52.922Z,4.27
2017-08-22T09:21:19.868Z,3.97
2017-08-22T09:23:46.829Z,4.43
2017-08-22T09:26:13.752Z,4.20
2017-08-22T09:28:40.724Z,3.90
2017-08-22T09:31:07.665Z,3.83
2017-08-22T09:33:34.648Z,3.40
2017-08-22T09:36:01.620Z,4.00
2017-08-22T09:38:29.220Z,3.30
2017-08-22T09:40:56.251Z,3.67
2017-08-22T09:43:23.216Z,3.87
2017-08-22T09:45:50.104Z,3.10
2017-08-22T09:48:17.150Z,3.00
2017-08-22T09:50:44.053Z,3.37
2017-08-22T09:53:10.948Z,3.30
2017-08-22T09:55:37.935Z,3.70
2017-08-22T09:58:04.812Z,2.97
2017-08-22T10:00:31.733Z,3.03
2017-08-22T10:02:58.689Z,3.30
2017-08-22T10:05:25.575Z,3.00
2017-08-22T10:07:53.198Z,3.37
2017-08-22T10:10:20.136Z,3.00
2017-08-22T10:12:47.019Z,3.73
2017-08-22T10:15:13.897Z,2.73
2017-08-22T10:17:40.890Z,3.00
2017-08-22T10:20:08.181Z,3.10
2017-08-22T10:22:36.045Z,3.60
2017-08-22T10:25:03.658Z,2.87
2017-08-22T10:27:30.902Z,3.50
2017-08-22T10:29:58.177Z,3.37
2017-08-22T10:32:29.041Z,3.33
2017-08-22T10:34:56.785Z,3.70
2017-08-22T10:37:26.448Z,2.87
2017-08-22T10:39:54.039Z,2.77
2017-08-22T10:42:21.329Z,2.90
2017-08-22T10:44:49.166Z,3.50
2017-08-22T10:49:51.393Z,3.30
2017-08-22T10:52:19.494Z,3.50
2017-08-22T10:54:46.781Z,2.90
2017-08-22T10:57:13.717Z,3.27
2017-08-22T10:59:40.688Z,3.00
2017-08-22T11:02:07.554Z,2.90
2017-08-22T11:04:35.165Z,3.03
2017-08-22T11:07:09.797Z,3.30
2017-08-22T11:09:36.689Z,3.33
2017-08-22T11:12:04.353Z,2.70
2017-08-22T11:14:32.040Z,3.27
2017-08-22T11:16:58.924Z,3.23
2017-08-22T11:19:25.898Z,3.03
2017-08-22T11:21:52.774Z,3.10
2017-08-22T11:24:19.717Z,3.03
2017-08-22T11:26:47.364Z,4.03
2017-08-22T11:29:15.205Z,4.07
2017-08-22T11:31:42.628Z,13.50
2017-08-22T11:34:09.834Z,11.60
2017-08-22T11:36:37.171Z,11.20
2017-08-22T11:39:05.337Z,3.60
2017-08-22T11:41:32.693Z,4.20
2017-08-22T11:44:07.985Z,4.53
2017-08-22T11:46:36.511Z,3.70
2017-08-22T11:49:06.548Z,4.50
2017-08-22T11:51:35.369Z,3.90
2017-08-22T11:54:03.030Z,4.93
2017-08-22T11:56:30.010Z,4.13
2017-08-22T11:58:56.929Z,4.70
2017-08-22T12:01:24.677Z,5.80
2017-08-22T12:03:52.910Z,3.97
2017-08-22T12:06:19.932Z,3.90
2017-08-22T12:08:51.467Z,3.80
2017-08-22T12:11:23.472Z,4.50
2017-08-22T12:13:52.515Z,5.10
2017-08-22T12:16:22.252Z,4.00
2017-08-22T12:18:52.770Z,3.30
2017-08-22T12:21:24.735Z,3.23
2017-08-22T12:23:52.862Z,3.20
2017-08-22T12:26:20.325Z,3.50
2017-08-22T12:28:47.698Z,3.50
2017-08-22T12:31:15.026Z,2.87
2017-08-22T12:33:42.192Z,3.53
2017-08-22T12:36:09.950Z,3.00
2017-08-22T12:38:38.076Z,3.53
2017-08-22T12:41:05.585Z,2.83
2017-08-22T12:43:40.337Z,3.30
2017-08-22T12:46:08.171Z,2.87
2017-08-22T12:48:35.620Z,2.80
2017-08-22T12:51:02.559Z,2.97
2017-08-22T12:53:29.524Z,3.30
2017-08-22T12:55:56.582Z,3.17
2017-08-22T12:58:23.627Z,3.27
2017-08-22T13:00:50.553Z,3.30
2017-08-22T13:03:17.512Z,3.20
2017-08-22T13:05:44.501Z,3.47
2017-08-22T13:08:12.128Z,3.03
2017-08-22T13:10:39.046Z,3.43
2017-08-22T13:13:06.045Z,3.10
2017-08-22T13:15:33.052Z,3.00
2017-08-22T13:17:59.939Z,3.77
2017-08-22T13:20:26.877Z,3.13
2017-08-22T13:22:54.023Z,3.13
2017-08-22T13:25:22.696Z,2.87
2017-08-22T13:27:53.853Z,3.10
2017-08-22T13:30:20.847Z,2.90
2017-08-22T13:32:47.783Z,3.23
2017-08-22T13:35:14.786Z,3.23
2017-08-22T13:37:41.767Z,3.20
2017-08-22T13:40:09.404Z,3.30
2017-08-22T13:42:36.330Z,3.00
2017-08-22T13:45:03.336Z,2.90
2017-08-22T13:47:30.271Z,3.40
2017-08-22T13:49:58.069Z,2.93
2017-08-22T13:52:24.971Z,3.70
2017-08-22T13:54:51.911Z,3.60
2017-08-22T13:57:18.908Z,3.70
2017-08-22T13:59:45.874Z,3.90
2017-08-22T14:02:12.845Z,3.50
2017-08-22T14:04:39.858Z,4.10
2017-08-22T14:07:06.741Z,3.93
2017-08-22T14:09:33.768Z,3.70
2017-08-22T14:12:00.708Z,4.00
2017-08-22T14:14:27.661Z,3.70
2017-08-22T14:16:54.684Z,3.80
2017-08-22T14:19:21.573Z,3.20
2017-08-22T14:21:48.449Z,3.40
2017-08-22T14:24:16.204Z,3.83
2017-08-22T14:26:43.849Z,3.50
2017-08-22T14:29:10.812Z,3.60
2017-08-22T14:31:37.693Z,3.50
2017-08-22T14:34:04.568Z,3.37
2017-08-22T14:36:31.508Z,4.00
2017-08-22T14:38:58.397Z,3.20
2017-08-22T14:41:26.091Z,3.80
2017-08-22T14:43:53.001Z,3.97
2017-08-22T14:46:19.960Z,4.37
2017-08-22T14:48:46.841Z,3.50
2017-08-22T14:51:13.907Z,3.97
2017-08-22T14:53:40.920Z,3.80
2017-08-22T14:56:07.869Z,3.43
2017-08-22T14:58:34.787Z,3.60
2017-08-22T15:01:01.808Z,3.37
2017-08-22T15:03:28.690Z,3.90
2017-08-22T15:06:00.785Z,3.57
2017-08-22T15:08:28.322Z,3.97
2017-08-22T15:10:55.220Z,4.03
2017-08-22T15:13:22.205Z,3.30
2017-08-22T15:15:49.969Z,4.40
2017-08-22T15:18:25.390Z,3.60
2017-08-22T15:20:53.373Z,4.50
2017-08-22T15:23:20.566Z,3.60
2017-08-22T15:25:47.790Z,4.07
2017-08-22T15:28:15.671Z,3.73
2017-08-22T15:30:47.816Z,4.40
2017-08-22T15:33:15.610Z,3.37
2017-08-22T15:35:43.052Z,4.00
2017-08-22T15:38:10.622Z,3.77
2017-08-22T15:40:38.064Z,3.67
2017-08-22T15:43:06.099Z,3.67
2017-08-22T15:45:33.997Z,3.97
2017-08-22T15:48:02.207Z,4.17
2017-08-22T15:50:31.599Z,3.50
2017-08-22T15:53:00.159Z,3.60
2017-08-22T15:55:29.860Z,4.03
2017-08-22T15:57:57.944Z,4.23
2017-08-22T16:00:25.479Z,4.33
2017-08-22T16:02:54.063Z,4.10
2017-08-22T16:05:26.398Z,4.33
2017-08-22T16:07:55.966Z,3.97
2017-08-22T16:10:24.753Z,4.20
2017-08-22T16:12:54.591Z,3.80
2017-08-22T16:15:22.872Z,3.73
2017-08-22T16:17:50.380Z,4.07
2017-08-22T16:20:20.438Z,4.10
2017-08-22T16:22:49.111Z,3.80
2017-08-22T16:25:16.032Z,4.77
2017-08-22T16:27:42.929Z,4.17
2017-08-22T16:30:10.628Z,4.27
2017-08-22T16:32:37.537Z,4.20
2017-08-22T16:35:04.412Z,3.73
2017-08-22T16:37:31.429Z,3.70
2017-08-22T16:39:59.067Z,4.20
2017-08-22T16:42:26.057Z,3.50
2017-08-22T16:44:53.009Z,4.80
2017-08-22T16:47:19.895Z,4.10
2017-08-22T16:49:46.871Z,3.60
2017-08-22T16:52:13.799Z,4.23
2017-08-22T16:54:40.681Z,4.90
2017-08-22T16:57:07.681Z,4.30
2017-08-22T16:59:34.561Z,4.80
2017-08-22T17:02:02.253Z,4.70
2017-08-22T17:04:29.215Z,4.23
2017-08-22T17:06:56.297Z,3.70
2017-08-22T17:09:23.289Z,7.93
2017-08-22T17:11:50.166Z,4.10
2017-08-22T17:14:17.148Z,3.73
2017-08-22T17:16:44.884Z,4.53
2017-08-22T17:19:15.770Z,3.90
2017-08-22T17:21:43.732Z,3.57
2017-08-22T17:24:11.988Z,3.80
2017-08-22T17:26:38.956Z,3.83
2017-08-22T17:29:05.933Z,3.93
2017-08-22T17:31:32.792Z,4.13
2017-08-22T17:33:59.700Z,4.17
2017-08-22T17:39:23.292Z,3.70
2017-08-22T17:41:58.192Z,4.03
2017-08-22T17:44:34.642Z,4.17
2017-08-22T17:47:09.244Z,3.80
2017-08-22T17:49:44.384Z,3.83
2017-08-22T17:52:18.400Z,3.80
2017-08-22T17:54:46.524Z,4.00
2017-08-22T17:57:14.230Z,3.70
2017-08-22T17:59:41.134Z,3.20
2017-08-22T18:02:08.768Z,4.17
2017-08-22T18:04:35.741Z,4.60
2017-08-22T18:07:02.641Z,3.93
2017-08-22T18:09:29.609Z,4.00
2017-08-22T18:12:01.718Z,3.80
2017-08-22T18:14:28.611Z,4.40
2017-08-22T18:16:55.530Z,4.30
2017-08-22T18:19:22.515Z,3.50
2017-08-22T18:21:49.408Z,4.43
2017-08-22T18:24:16.317Z,4.80
2017-08-22T18:26:43.350Z,4.27
2017-08-22T18:29:10.320Z,4.27
2017-08-22T18:31:37.944Z,5.07
2017-08-22T18:34:04.945Z,4.13
2017-08-22T18:36:32.585Z,4.63
2017-08-22T18:39:00.224Z,4.80
2017-08-22T18:41:27.199Z,3.63
2017-08-22T18:43:54.140Z,4.97
2017-08-22T18:46:21.041Z,5.00
2017-08-22T18:48:47.913Z,5.40
2017-08-22T18:51:14.881Z,5.30
2017-08-22T18:53:42.428Z,4.40
2017-08-22T18:56:09.408Z,4.77
2017-08-22T18:58:36.365Z,5.03
2017-08-22T19:01:04.429Z,4.50
2017-08-22T19:03:32.810Z,4.73
2017-08-22T19:06:03.961Z,4.80
2017-08-22T19:08:31.579Z,4.63
2017-08-22T19:10:58.546Z,5.33
2017-08-22T19:13:25.422Z,5.90
2017-08-22T19:15:53.093Z,4.87
2017-08-22T19:18:19.975Z,5.60
2017-08-22T19:20:46.965Z,5.23
2017-08-22T19:23:13.873Z,5.63
2017-08-22T19:25:40.776Z,5.07
2017-08-22T19:28:07.725Z,6.10
2017-08-22T19:30:34.613Z,5.30
2017-08-22T19:33:01.585Z,4.70
2017-08-22T19:35:29.217Z,5.17
2017-08-22T19:37:56.943Z,5.33
2017-08-22T19:40:23.852Z,5.70
2017-08-22T19:42:50.831Z,5.43
2017-08-22T19:45:17.846Z,5.33
2017-08-22T19:47:44.745Z,5.33
2017-08-22T19:50:11.701Z,5.53
2017-08-22T19:52:38.725Z,6.07
2017-08-22T19:55:05.615Z,6.10
2017-08-22T19:57:32.563Z,5.97
2017-08-22T19:59:59.410Z,5.80
2017-08-22T20:02:26.349Z,5.57
2017-08-22T20:04:53.258Z,5.93
2017-08-22T20:07:20.150Z,5.70
2017-08-22T20:09:47.128Z,5.20
2017-08-22T20:12:14.734Z,5.77
2017-08-22T20:14:41.628Z,5.33
2017-08-22T20:17:09.335Z,6.10
2017-08-22T20:19:36.221Z,6.57
2017-08-22T20:22:03.104Z,5.37
2017-08-22T20:24:30.252Z,6.13
2017-08-22T20:26:57.188Z,6.70
2017-08-22T20:29:24.144Z,6.17
2017-08-22T20:31:51.048Z,5.53
2017-08-22T20:34:18.016Z,5.50
2017-08-22T20:36:45.626Z,5.20
2017-08-22T20:39:12.523Z,5.97
2017-08-22T20:41:40.254Z,5.07
2017-08-22T20:44:07.147Z,5.10
2017-08-22T20:46:34.836Z,6.03
2017-08-22T20:49:01.711Z,5.57
2017-08-22T20:51:28.586Z,5.10
2017-08-22T20:53:55.620Z,5.60
2017-08-22T20:56:22.496Z,5.63
2017-08-22T20:58:49.442Z,8.57
2017-08-22T21:01:17.748Z,6.50
2017-08-22T21:03:44.672Z,6.13
2017-08-22T21:06:12.359Z,6.60
2017-08-22T21:08:39.253Z,5.00
2017-08-22T21:11:06.296Z,5.83
2017-08-22T21:13:33.222Z,5.93
2017-08-22T21:16:00.168Z,5.93
2017-08-22T21:18:27.044Z,5.97
2017-08-22T21:20:54.688Z,5.77
2017-08-22T21:23:22.220Z,6.47
2017-08-22T21:25:49.705Z,6.10
2017-08-22T21:28:17.027Z,6.50
2017-08-22T21:30:45.947Z,5.77
2017-08-22T21:33:13.689Z,5.93
2017-08-22T21:35:46.365Z,6.20
2017-08-22T21:38:14.880Z,5.97
2017-08-22T21:40:43.728Z,6.20
2017-08-22T21:43:11.250Z,6.37
2017-08-22T21:48:29.512Z,5.77
2017-08-22T21:50:56.582Z,6.23
2017-08-22T21:53:28.501Z,6.03
2017-08-22T21:56:00.689Z,6.30
2017-08-22T21:58:27.825Z,5.77
2017-08-22T22:00:57.046Z,6.90
2017-08-22T22:03:27.764Z,7.00
2017-08-22T22:05:55.953Z,6.30
2017-08-22T22:08:24.242Z,6.53
2017-08-22T22:10:53.151Z,6.60
2017-08-22T22:13:21.166Z,6.57
2017-08-22T22:15:50.311Z,6.80
2017-08-22T22:18:20.007Z,6.97
2017-08-22T22:20:50.802Z,7.70
2017-08-22T22:23:19.294Z,6.50
2017-08-22T22:25:46.783Z,7.27
2017-08-22T22:28:14.194Z,6.13
2017-08-22T22:30:43.413Z,6.50
2017-08-22T22:33:10.419Z,7.00
2017-08-22T22:35:38.158Z,7.53
2017-08-22T22:38:05.033Z,8.07
2017-08-22T22:40:31.926Z,8.70
2017-08-22T22:42:58.921Z,8.07
2017-08-22T22:45:25.859Z,7.60
2017-08-22T22:47:53.564Z,8.10
2017-08-22T22:50:20.440Z,6.70
2017-08-22T22:52:47.377Z,6.30
2017-08-22T22:55:14.342Z,6.97
2017-08-22T22:57:41.318Z,7.57
2017-08-22T23:00:08.266Z,6.70
2017-08-22T23:02:35.146Z,7.03
2017-08-22T23:05:02.277Z,7.20
2017-08-22T23:07:29.237Z,7.67
2017-08-22T23:09:56.097Z,7.73
2017-08-22T23:12:23.032Z,8.30
2017-08-22T23:14:49.904Z,6.80
2017-08-22T23:17:16.848Z,8.70
2017-08-22T23:19:43.728Z,9.20
2017-08-22T23:22:10.713Z,8.67
2017-08-22T23:24:37.572Z,8.77
2017-08-22T23:27:04.485Z,7.93
2017-08-22T23:29:31.465Z,9.00
2017-08-22T23:31:58.447Z,10.00
2017-08-22T23:34:25.373Z,9.90
2017-08-22T23:36:52.240Z,10.80
2017-08-22T23:39:19.115Z,10.23
2017-08-22T23:41:46.039Z,9.33
2017-08-22T23:44:12.967Z,8.43
2017-08-22T23:46:40.649Z,7.70
2017-08-22T23:49:07.585Z,8.13
2017-08-22T23:51:34.561Z,8.33
2017-08-22T23:54:01.455Z,9.73
2017-08-22T23:56:28.402Z,9.60
2017-08-22T23:58:55.340Z,10.40
